Time;durP1;ratioP1;P1;durP2;ratioP2;P2;SDS_P1;SDS_P2;PMS_P1;PMS_P2;Temp;Humidity;BMP_temperature;BMP_pressure;BME280_temperature;BME280_humidity;BME280_pressure;Samples;Min_cycle;Max_cycle;Signal;HPM_P1;HPM_P2
2024/02/25 00:02:49;;;;;;;3.65;2.22;;;;;;;;;;10331680;28;20085;-55
2024/02/25 00:07:50;;;;;;;18.40;2.75;;;;;;;;;;10330879;28;20282;-53
2024/02/25 00:12:50;;;;;;;7.43;2.42;;;;;;;;;;10330356;28;20030;-52
2024/02/25 00:17:51;;;;;;;3.72;2.33;;;;;;;;;;10331624;28;20092;-53
2024/02/25 00:22:52;;;;;;;5.43;2.22;;;;;;;;;;10330629;28;20031;-53
2024/02/25 00:27:52;;;;;;;3.83;2.67;;;;;;;;;;10331045;28;20030;-52
2024/02/25 00:32:53;;;;;;;10.95;2.35;;;;;;;;;;10331152;28;20045;-52
2024/02/25 00:37:53;;;;;;;2.53;2.15;;;;;;;;;;10330622;28;20394;-52
2024/02/25 00:42:54;;;;;;;4.18;2.58;;;;;;;;;;10330442;28;20029;-51
2024/02/25 00:47:55;;;;;;;13.88;2.50;;;;;;;;;;10330407;28;20038;-52
2024/02/25 00:52:55;;;;;;;2.53;2.33;;;;;;;;;;10330014;28;20041;-52
2024/02/25 00:57:56;;;;;;;3.17;1.92;;;;;;;;;;10330188;28;20026;-53
2024/02/25 01:02:56;;;;;;;3.63;2.28;;;;;;;;;;10329219;28;20037;-52
2024/02/25 01:07:57;;;;;;;2.60;2.28;;;;;;;;;;10329128;28;20057;-53
2024/02/25 01:12:57;;;;;;;4.00;1.90;;;;;;;;;;10329701;28;20077;-53
2024/02/25 01:17:58;;;;;;;2.65;2.00;;;;;;;;;;10328976;28;20034;-55
2024/02/25 01:22:58;;;;;;;3.72;2.40;;;;;;;;;;10328398;28;20173;-53
2024/02/25 01:27:59;;;;;;;2.17;1.83;;;;;;;;;;10328237;28;20092;-53
2024/02/25 01:33:00;;;;;;;2.65;1.98;;;;;;;;;;10328276;28;20049;-52
2024/02/25 01:38:00;;;;;;;5.78;2.50;;;;;;;;;;10328195;28;20030;-51
2024/02/25 01:43:17;;;;;;;3.13;1.98;;;;;;;;;;10327778;28;20045;-56
2024/02/25 01:48:22;;;;;;;4.30;1.85;;;;;;;;;;10328104;28;20034;-52
2024/02/25 01:53:24;;;;;;;2.47;1.80;;;;;;;;;;10326456;28;20034;-54
2024/02/25 01:58:25;;;;;;;3.28;1.83;;;;;;;;;;10327396;28;20057;-54
2024/02/25 02:03:27;;;;;;;2.58;2.15;;;;;;;;;;10326146;28;20371;-52
2024/02/25 02:08:29;;;;;;;3.38;2.03;;;;;;;;;;10327435;28;20054;-54
2024/02/25 02:13:29;;;;;;;2.08;1.88;;;;;;;;;;10326963;28;20374;-54
2024/02/25 02:18:30;;;;;;;3.33;2.22;;;;;;;;;;10327084;28;20022;-52
2024/02/25 02:23:32;;;;;;;2.28;1.88;;;;;;;;;;10326186;28;20078;-52
2024/02/25 02:28:33;;;;;;;1.80;1.70;;;;;;;;;;10326570;28;20098;-54
2024/02/25 02:33:38;;;;;;;4.38;1.95;;;;;;;;;;10326801;28;20496;-53
2024/02/25 02:38:39;;;;;;;3.50;2.20;;;;;;;;;;10326301;28;20102;-52
2024/02/25 02:43:40;;;;;;;1.90;1.63;;;;;;;;;;10326582;28;20109;-60
2024/02/25 02:48:40;;;;;;;2.42;1.98;;;;;;;;;;10325778;28;20417;-54
2024/02/25 02:53:42;;;;;;;1.77;1.67;;;;;;;;;;10326048;28;20389;-54
2024/02/25 02:58:47;;;;;;;2.47;1.80;;;;;;;;;;10326381;28;20054;-54
2024/02/25 03:03:48;;;;;;;8.75;1.98;;;;;;;;;;10325451;28;20505;-53
2024/02/25 03:08:49;;;;;;;3.38;1.83;;;;;;;;;;10325230;28;20057;-55
2024/02/25 03:13:50;;;;;;;2.10;1.90;;;;;;;;;;10325582;28;20039;-53
2024/02/25 03:18:51;;;;;;;3.05;1.92;;;;;;;;;;10324943;28;20109;-53
2024/02/25 03:23:51;;;;;;;1.67;1.50;;;;;;;;;;10326169;28;20034;-53
2024/02/25 03:28:52;;;;;;;1.88;1.63;;;;;;;;;;10325304;28;20274;-51
2024/02/25 03:33:53;;;;;;;3.67;2.03;;;;;;;;;;10325408;28;20037;-51
2024/02/25 03:38:53;;;;;;;2.35;1.67;;;;;;;;;;10325674;28;20030;-53
2024/02/25 03:43:54;;;;;;;5.50;1.98;;;;;;;;;;10324913;28;20062;-52
2024/02/25 03:48:54;;;;;;;1.60;1.50;;;;;;;;;;10327284;28;20389;-52
2024/02/25 03:53:55;;;;;;;3.75;1.77;;;;;;;;;;10332164;28;20637;-51
2024/02/25 03:58:56;;;;;;;1.75;1.50;;;;;;;;;;10332637;28;20454;-52
2024/02/25 04:03:56;;;;;;;2.00;1.50;;;;;;;;;;10332272;28;20031;-51
2024/02/25 04:08:57;;;;;;;2.45;1.50;;;;;;;;;;10331568;28;20050;-52
2024/02/25 04:13:57;;;;;;;1.73;1.63;;;;;;;;;;10331469;28;20026;-53
2024/02/25 04:18:58;;;;;;;2.30;1.73;;;;;;;;;;10331261;28;20035;-51
2024/02/25 04:23:58;;;;;;;3.58;2.10;;;;;;;;;;10331198;28;20038;-52
2024/02/25 04:28:59;;;;;;;1.50;1.33;;;;;;;;;;10331032;28;20038;-52
2024/02/25 04:34:00;;;;;;;2.45;1.58;;;;;;;;;;10331403;28;20092;-54
2024/02/25 04:39:00;;;;;;;2.28;1.45;;;;;;;;;;10330840;28;20371;-57
2024/02/25 04:44:01;;;;;;;2.10;1.52;;;;;;;;;;10330483;28;20379;-58
2024/02/25 04:49:02;;;;;;;2.42;1.88;;;;;;;;;;10330424;28;20034;-53
2024/02/25 04:54:03;;;;;;;2.95;1.70;;;;;;;;;;10329521;28;20076;-58
2024/02/25 04:59:03;;;;;;;2.13;1.60;;;;;;;;;;10330582;28;20022;-52
2024/02/25 05:04:04;;;;;;;1.50;1.40;;;;;;;;;;10328991;28;20030;-53
2024/02/25 05:09:04;;;;;;;1.90;1.50;;;;;;;;;;10328855;28;20050;-52
2024/02/25 05:14:05;;;;;;;4.15;1.58;;;;;;;;;;10328588;28;20054;-53
2024/02/25 05:19:06;;;;;;;1.58;1.48;;;;;;;;;;10329070;28;20026;-53
2024/02/25 05:24:07;;;;;;;1.75;1.45;;;;;;;;;;10328513;28;20061;-52
2024/02/25 05:29:08;;;;;;;1.92;1.70;;;;;;;;;;10329395;28;20045;-53
2024/02/25 05:34:08;;;;;;;1.45;1.35;;;;;;;;;;10327832;28;20029;-50
2024/02/25 05:39:09;;;;;;;2.20;1.50;;;;;;;;;;10328861;28;20038;-55
2024/02/25 05:44:11;;;;;;;1.85;1.55;;;;;;;;;;10327640;28;20105;-55
2024/02/25 05:49:12;;;;;;;1.55;1.45;;;;;;;;;;10328045;28;20034;-55
2024/02/25 05:54:12;;;;;;;2.92;1.40;;;;;;;;;;10328056;28;20038;-53
2024/02/25 05:59:13;;;;;;;1.77;1.40;;;;;;;;;;10325906;28;20061;-55
2024/02/25 06:04:16;;;;;;;3.65;1.25;;;;;;;;;;10327018;28;20023;-52
2024/02/25 06:09:17;;;;;;;1.83;1.40;;;;;;;;;;10326824;28;20534;-53
2024/02/25 06:14:17;;;;;;;1.92;1.42;;;;;;;;;;10326961;28;20030;-54
2024/02/25 06:19:18;;;;;;;6.68;1.67;;;;;;;;;;10326988;28;20486;-52
2024/02/25 06:24:18;;;;;;;1.45;1.30;;;;;;;;;;10326614;28;20389;-53
2024/02/25 06:29:19;;;;;;;2.90;1.42;;;;;;;;;;10327497;28;20381;-51
2024/02/25 06:34:20;;;;;;;1.50;1.40;;;;;;;;;;10326871;28;20085;-52
2024/02/25 06:39:21;;;;;;;1.58;1.42;;;;;;;;;;10326454;28;20034;-54
2024/02/25 06:44:21;;;;;;;2.08;1.48;;;;;;;;;;10325831;28;20027;-53
2024/02/25 06:49:22;;;;;;;2.40;1.50;;;;;;;;;;10326217;28;20276;-60
2024/02/25 06:54:23;;;;;;;1.50;1.40;;;;;;;;;;10325773;28;20482;-53
2024/02/25 06:59:24;;;;;;;4.03;1.70;;;;;;;;;;10325807;28;20030;-54
2024/02/25 07:04:26;;;;;;;1.30;1.20;;;;;;;;;;10326704;28;20030;-53
2024/02/25 07:09:27;;;;;;;2.15;1.30;;;;;;;;;;10325571;28;20126;-55
2024/02/25 07:14:30;;;;;;;1.95;1.38;;;;;;;;;;10325804;28;20619;-53
2024/02/25 07:19:30;;;;;;;3.58;1.35;;;;;;;;;;10325613;28;20038;-51
2024/02/25 07:24:31;;;;;;;2.20;1.50;;;;;;;;;;10328355;28;20027;-59
2024/02/25 07:29:32;;;;;;;2.42;1.52;;;;;;;;;;10333046;28;20034;-53
2024/02/25 07:34:32;;;;;;;2.20;1.42;;;;;;;;;;10333762;28;20211;-51
2024/02/25 07:39:33;;;;;;;2.63;1.70;;;;;;;;;;10333021;28;20034;-51
2024/02/25 07:44:34;;;;;;;2.60;1.38;;;;;;;;;;10332918;28;20018;-53
2024/02/25 07:49:34;;;;;;;1.35;1.25;;;;;;;;;;10332798;28;20413;-53
2024/02/25 07:54:35;;;;;;;1.88;1.65;;;;;;;;;;10331966;28;20300;-55
2024/02/25 07:59:36;;;;;;;1.52;1.40;;;;;;;;;;10332254;28;20023;-55
2024/02/25 08:04:37;;;;;;;1.50;1.40;;;;;;;;;;10331484;28;20034;-58
2024/02/25 08:09:37;;;;;;;1.60;1.50;;;;;;;;;;10330729;28;20050;-57
2024/02/25 08:14:38;;;;;;;1.77;1.45;;;;;;;;;;10331774;28;20450;-59
2024/02/25 08:19:41;;;;;;;2.55;1.40;;;;;;;;;;10330742;28;20022;-58
2024/02/25 08:24:42;;;;;;;1.63;1.50;;;;;;;;;;10330994;28;20026;-58
2024/02/25 08:29:43;;;;;;;1.92;1.10;;;;;;;;;;10331006;28;20421;-59
2024/02/25 08:34:44;;;;;;;2.25;1.70;;;;;;;;;;10330660;28;20037;-58
2024/02/25 08:39:44;;;;;;;2.08;1.67;;;;;;;;;;10330381;28;20026;-57
2024/02/25 08:44:49;;;;;;;1.60;1.20;;;;;;;;;;10329816;28;20029;-62
2024/02/25 08:49:50;;;;;;;2.50;1.70;;;;;;;;;;10328966;28;20515;-58
2024/02/25 08:54:51;;;;;;;2.40;1.38;;;;;;;;;;10329133;28;20088;-55
2024/02/25 08:59:51;;;;;;;3.03;1.25;;;;;;;;;;10329260;28;20088;-53
2024/02/25 09:04:52;;;;;;;2.25;1.30;;;;;;;;;;10327821;28;20030;-53
2024/02/25 09:09:52;;;;;;;1.58;1.48;;;;;;;;;;10327223;28;20242;-54
2024/02/25 09:14:53;;;;;;;1.58;1.35;;;;;;;;;;10327671;28;20038;-52
2024/02/25 09:19:53;;;;;;;1.63;1.25;;;;;;;;;;10327772;28;20030;-59
2024/02/25 09:24:54;;;;;;;3.42;1.30;;;;;;;;;;10328185;28;20031;-54
2024/02/25 09:29:55;;;;;;;1.40;1.30;;;;;;;;;;10328379;28;20030;-53
2024/02/25 09:34:56;;;;;;;1.75;1.35;;;;;;;;;;10328894;28;20026;-55
2024/02/25 09:39:56;;;;;;;1.30;1.20;;;;;;;;;;10327264;28;20417;-55
2024/02/25 09:44:57;;;;;;;1.92;1.30;;;;;;;;;;10326478;28;20027;-53
2024/02/25 09:49:58;;;;;;;11.57;1.85;;;;;;;;;;10327110;28;20027;-55
2024/02/25 09:54:59;;;;;;;3.92;1.92;;;;;;;;;;10326532;28;20034;-60
2024/02/25 10:00:00;;;;;;;9.40;2.33;;;;;;;;;;10326225;28;20037;-59
2024/02/25 10:05:02;;;;;;;7.03;1.83;;;;;;;;;;10327543;28;20038;-58
2024/02/25 10:10:03;;;;;;;3.35;1.77;;;;;;;;;;10327564;28;20124;-55
2024/02/25 10:15:08;;;;;;;4.30;2.00;;;;;;;;;;10327075;28;20056;-60
2024/02/25 10:20:11;;;;;;;5.65;1.75;;;;;;;;;;10326472;28;20034;-52
2024/02/25 10:25:12;;;;;;;4.72;1.83;;;;;;;;;;10325619;28;20517;-54
2024/02/25 10:30:12;;;;;;;8.02;2.03;;;;;;;;;;10327211;28;20178;-52
2024/02/25 10:35:13;;;;;;;1.55;1.40;;;;;;;;;;10326552;28;20037;-55
2024/02/25 10:40:14;;;;;;;6.47;1.80;;;;;;;;;;10317520;28;20034;-57
2024/02/25 10:45:16;;;;;;;8.35;1.60;;;;;;;;;;10325217;28;20106;-52
2024/02/25 10:50:20;;;;;;;6.47;1.77;;;;;;;;;;10325297;28;20034;-51
2024/02/25 10:55:22;;;;;;;6.57;1.95;;;;;;;;;;10325382;28;20038;-52
2024/02/25 11:00:23;;;;;;;5.63;2.03;;;;;;;;;;10326871;28;20027;-55
2024/02/25 11:05:23;;;;;;;3.53;2.38;;;;;;;;;;10334973;28;20034;-52
2024/02/25 11:10:32;;;;;;;5.38;1.95;;;;;;;;;;10334006;28;20092;-53
2024/02/25 11:15:33;;;;;;;5.25;2.13;;;;;;;;;;10334837;28;20096;-52
2024/02/25 11:20:36;;;;;;;8.25;1.42;;;;;;;;;;10333598;28;20030;-53
2024/02/25 11:25:37;;;;;;;1.92;1.77;;;;;;;;;;10334045;28;20027;-53
2024/02/25 11:30:41;;;;;;;8.15;1.70;;;;;;;;;;10333466;28;20038;-52
2024/02/25 11:35:45;;;;;;;2.97;1.50;;;;;;;;;;10333019;28;20034;-54
2024/02/25 11:40:48;;;;;;;3.65;1.88;;;;;;;;;;10331171;28;20062;-52
2024/02/25 11:45:48;;;;;;;2.95;1.60;;;;;;;;;;10332551;28;20026;-53
2024/02/25 11:50:49;;;;;;;2.97;1.77;;;;;;;;;;10332698;28;20026;-61
2024/02/25 11:55:51;;;;;;;6.70;2.13;;;;;;;;;;10331958;28;20045;-61
2024/02/25 12:00:52;;;;;;;2.95;1.65;;;;;;;;;;10326889;28;20367;-59
2024/02/25 12:05:53;;;;;;;4.05;1.90;;;;;;;;;;10328741;28;20030;-61
2024/02/25 12:10:53;;;;;;;3.85;1.58;;;;;;;;;;10330804;28;20022;-60
2024/02/25 12:15:54;;;;;;;6.88;1.70;;;;;;;;;;10332257;28;20031;-61
2024/02/25 12:20:57;;;;;;;6.68;1.90;;;;;;;;;;10330737;28;20620;-62
2024/02/25 12:26:04;;;;;;;3.05;1.67;;;;;;;;;;10330492;28;20026;-62
2024/02/25 12:31:05;;;;;;;6.22;2.05;;;;;;;;;;10329218;28;20037;-58
2024/02/25 12:36:08;;;;;;;5.75;1.52;;;;;;;;;;10331063;28;20113;-61
2024/02/25 12:41:13;;;;;;;3.75;1.50;;;;;;;;;;10330292;28;20185;-61
2024/02/25 12:46:13;;;;;;;7.28;1.50;;;;;;;;;;10330792;28;20035;-54
2024/02/25 12:51:18;;;;;;;1.88;1.48;;;;;;;;;;10328882;28;20026;-61
2024/02/25 12:56:18;;;;;;;3.45;1.40;;;;;;;;;;10330494;28;20092;-52
2024/02/25 13:01:19;;;;;;;3.53;1.42;;;;;;;;;;10329883;28;20525;-54
2024/02/25 13:06:20;;;;;;;2.92;1.70;;;;;;;;;;10329949;28;20490;-50
2024/02/25 13:11:20;;;;;;;1.45;1.30;;;;;;;;;;10328982;28;20034;-57
2024/02/25 13:16:21;;;;;;;1.40;1.30;;;;;;;;;;10329325;28;20026;-51
2024/02/25 13:21:23;;;;;;;2.35;1.27;;;;;;;;;;10328137;28;20033;-52
2024/02/25 13:26:24;;;;;;;4.70;1.50;;;;;;;;;;10329260;28;20062;-56
2024/02/25 13:31:25;;;;;;;2.15;1.38;;;;;;;;;;10329436;28;20053;-52
2024/02/25 13:36:28;;;;;;;2.85;1.20;;;;;;;;;;10328464;28;20386;-53
2024/02/25 13:41:31;;;;;;;2.83;1.45;;;;;;;;;;10326882;28;20029;-52
2024/02/25 13:46:32;;;;;;;2.05;1.38;;;;;;;;;;10328229;28;20073;-53
2024/02/25 13:51:33;;;;;;;2.55;1.73;;;;;;;;;;10328561;28;20461;-54
2024/02/25 13:56:33;;;;;;;2.90;1.40;;;;;;;;;;10328664;28;20148;-52
2024/02/25 14:01:34;;;;;;;2.60;1.73;;;;;;;;;;10327778;28;20038;-50
2024/02/25 14:06:34;;;;;;;2.58;1.20;;;;;;;;;;10327025;28;20069;-51
2024/02/25 14:11:35;;;;;;;1.98;1.35;;;;;;;;;;10327230;28;20030;-52
2024/02/25 14:16:36;;;;;;;2.67;1.45;;;;;;;;;;10327104;28;20250;-49
2024/02/25 14:21:36;;;;;;;4.10;1.30;;;;;;;;;;10326974;28;20034;-51
2024/02/25 14:26:37;;;;;;;2.13;1.35;;;;;;;;;;10326795;28;20048;-51
2024/02/25 14:31:38;;;;;;;2.85;1.63;;;;;;;;;;10326237;28;20042;-53
2024/02/25 14:36:38;;;;;;;3.80;1.25;;;;;;;;;;10326473;28;20034;-54
2024/02/25 14:41:39;;;;;;;2.25;1.30;;;;;;;;;;10324993;28;20023;-53
2024/02/25 14:46:39;;;;;;;1.25;1.05;;;;;;;;;;10326890;28;20030;-54
2024/02/25 14:51:40;;;;;;;3.03;1.60;;;;;;;;;;10326267;28;20068;-55
2024/02/25 14:56:42;;;;;;;2.08;1.30;;;;;;;;;;10326333;28;20119;-54
2024/02/25 15:01:42;;;;;;;3.42;1.27;;;;;;;;;;10326390;28;20062;-53
2024/02/25 15:06:43;;;;;;;5.82;1.23;;;;;;;;;;10326272;28;20131;-63
2024/02/25 15:11:43;;;;;;;4.68;1.50;;;;;;;;;;10326035;28;20043;-55
2024/02/25 15:16:44;;;;;;;2.38;1.20;;;;;;;;;;10325716;28;20367;-56
2024/02/25 15:21:45;;;;;;;2.10;1.25;;;;;;;;;;10326518;28;20031;-57
2024/02/25 15:26:47;;;;;;;1.90;1.40;;;;;;;;;;10325452;28;20079;-54
2024/02/25 15:31:47;;;;;;;1.20;1.08;;;;;;;;;;10325374;28;20030;-55
2024/02/25 15:36:48;;;;;;;1.52;1.27;;;;;;;;;;10325464;28;20026;-54
2024/02/25 15:41:53;;;;;;;3.42;1.60;;;;;;;;;;10325631;28;20030;-54
2024/02/25 15:46:54;;;;;;;1.60;1.20;;;;;;;;;;10330251;28;20046;-55
2024/02/25 15:51:54;;;;;;;2.65;1.38;;;;;;;;;;10332719;28;20023;-61
2024/02/25 15:56:55;;;;;;;2.20;1.50;;;;;;;;;;10332056;28;20454;-54
2024/02/25 16:01:58;;;;;;;1.60;1.50;;;;;;;;;;10331001;28;20037;-55
2024/02/25 16:07:00;;;;;;;1.63;1.10;;;;;;;;;;10331862;28;20043;-62
2024/02/25 16:12:01;;;;;;;1.75;1.20;;;;;;;;;;10331997;28;20154;-54
2024/02/25 16:17:02;;;;;;;2.08;1.30;;;;;;;;;;10331999;28;20077;-61
2024/02/25 16:22:02;;;;;;;1.38;1.25;;;;;;;;;;10331443;28;20034;-54
2024/02/25 16:27:03;;;;;;;2.25;1.13;;;;;;;;;;10331869;28;20042;-54
2024/02/25 16:32:04;;;;;;;2.67;1.10;;;;;;;;;;10331181;28;20474;-54
2024/02/25 16:37:05;;;;;;;1.40;1.30;;;;;;;;;;10331611;28;20057;-54
2024/02/25 16:42:06;;;;;;;2.47;1.25;;;;;;;;;;10330874;28;20030;-58
2024/02/25 16:47:07;;;;;;;4.28;1.50;;;;;;;;;;10330541;28;20034;-60
2024/02/25 16:52:07;;;;;;;1.92;1.35;;;;;;;;;;10331305;28;20038;-55
2024/02/25 16:57:08;;;;;;;1.50;1.40;;;;;;;;;;10330327;28;20026;-54
2024/02/25 17:07:16;;;;;;;1.67;1.20;;;;;;;;;;10335411;28;20074;-58
2024/02/25 17:12:17;;;;;;;2.70;1.30;;;;;;;;;;10340850;28;20493;-58
2024/02/25 17:17:17;;;;;;;2.25;1.30;;;;;;;;;;10370010;28;20030;-58
2024/02/25 17:22:19;;;;;;;2.33;1.17;;;;;;;;;;10369396;28;20052;-58
2024/02/25 17:27:19;;;;;;;2.80;1.10;;;;;;;;;;10369454;28;20022;-58
2024/02/25 17:32:20;;;;;;;2.72;1.25;;;;;;;;;;10369744;28;20164;-58
2024/02/25 17:37:20;;;;;;;2.50;1.15;;;;;;;;;;10369099;28;20496;-58
2024/02/25 17:42:21;;;;;;;1.45;1.35;;;;;;;;;;10368676;28;20084;-58
2024/02/25 17:47:22;;;;;;;1.20;1.10;;;;;;;;;;10369181;28;20026;-58
2024/02/25 17:52:27;;;;;;;1.40;1.30;;;;;;;;;;10369056;28;20022;-58
2024/02/25 17:57:28;;;;;;;2.83;1.33;;;;;;;;;;10368591;28;20080;-58
2024/02/25 18:02:28;;;;;;;1.50;1.40;;;;;;;;;;10369070;28;20524;-58
2024/02/25 18:07:29;;;;;;;1.73;1.10;;;;;;;;;;10367603;28;20052;-58
2024/02/25 18:12:32;;;;;;;1.20;1.10;;;;;;;;;;10367616;28;20037;-59
2024/02/25 18:17:33;;;;;;;1.92;1.42;;;;;;;;;;10366625;28;20088;-58
2024/02/25 18:22:33;;;;;;;2.80;1.50;;;;;;;;;;10358282;28;20645;-60
2024/02/25 18:27:34;;;;;;;2.25;1.23;;;;;;;;;;10365569;28;20073;-59
2024/02/25 18:32:34;;;;;;;3.47;1.50;;;;;;;;;;10366669;28;20070;-59
2024/02/25 18:37:35;;;;;;;1.92;1.70;;;;;;;;;;10367356;28;20025;-65
2024/02/25 18:42:36;;;;;;;1.92;1.55;;;;;;;;;;10366585;28;20034;-60
2024/02/25 18:47:39;;;;;;;1.85;1.50;;;;;;;;;;10366899;28;20026;-59
2024/02/25 18:52:40;;;;;;;3.13;1.65;;;;;;;;;;10366855;28;20017;-59
2024/02/25 18:57:41;;;;;;;5.35;1.80;;;;;;;;;;10365927;28;20026;-59
2024/02/25 19:02:41;;;;;;;5.63;2.10;;;;;;;;;;10366438;28;20265;-60
2024/02/25 19:07:42;;;;;;;4.55;2.10;;;;;;;;;;10366532;28;20050;-63
2024/02/25 19:12:42;;;;;;;5.55;2.15;;;;;;;;;;10365929;28;20177;-60
2024/02/25 19:17:43;;;;;;;3.85;2.17;;;;;;;;;;10336872;28;20045;-59
2024/02/25 19:22:44;;;;;;;3.78;2.28;;;;;;;;;;10370026;28;20026;-59
2024/02/25 19:27:45;;;;;;;2.78;2.50;;;;;;;;;;10373881;28;20504;-59
2024/02/25 19:32:46;;;;;;;3.67;2.70;;;;;;;;;;10368768;28;20109;-60
2024/02/25 19:37:48;;;;;;;4.65;2.78;;;;;;;;;;10373519;28;20056;-60
2024/02/25 19:42:48;;;;;;;3.30;2.20;;;;;;;;;;10373116;28;20528;-60
2024/02/25 19:47:49;;;;;;;3.55;2.50;;;;;;;;;;10373170;28;20026;-60
2024/02/25 19:52:49;;;;;;;4.38;2.70;;;;;;;;;;10372833;28;20026;-60
2024/02/25 19:57:50;;;;;;;2.30;2.08;;;;;;;;;;10372947;28;20080;-60
2024/02/25 20:02:51;;;;;;;5.63;2.63;;;;;;;;;;10371709;28;20045;-60
2024/02/25 20:07:51;;;;;;;3.95;2.22;;;;;;;;;;10372848;28;20377;-60
2024/02/25 20:12:52;;;;;;;4.07;2.58;;;;;;;;;;10372740;28;20026;-59
2024/02/25 20:17:54;;;;;;;4.20;2.47;;;;;;;;;;10370952;28;20034;-60
2024/02/25 20:22:55;;;;;;;3.30;2.55;;;;;;;;;;10370932;28;20115;-59
2024/02/25 20:27:55;;;;;;;3.72;2.20;;;;;;;;;;10372275;28;20030;-59
2024/02/25 20:32:57;;;;;;;2.65;2.42;;;;;;;;;;10371272;28;20045;-61
2024/02/25 20:37:58;;;;;;;4.55;2.47;;;;;;;;;;10372002;28;20060;-59
2024/02/25 20:42:58;;;;;;;4.43;2.40;;;;;;;;;;10366725;28;20037;-59
2024/02/25 20:48:01;;;;;;;3.00;2.20;;;;;;;;;;10370479;28;20025;-59
2024/02/25 20:53:02;;;;;;;5.32;2.72;;;;;;;;;;10370620;28;20201;-62
2024/02/25 20:58:02;;;;;;;3.50;2.63;;;;;;;;;;10370008;28;20497;-60
2024/02/25 21:03:03;;;;;;;4.03;2.47;;;;;;;;;;10367999;28;20128;-59
2024/02/25 21:08:05;;;;;;;9.07;2.53;;;;;;;;;;10364907;28;20032;-61
2024/02/25 21:13:06;;;;;;;4.88;2.58;;;;;;;;;;10367671;28;20042;-59
2024/02/25 21:18:08;;;;;;;3.40;2.25;;;;;;;;;;10369433;28;20030;-59
2024/02/25 21:23:09;;;;;;;3.70;2.60;;;;;;;;;;10368161;28;20030;-60
2024/02/25 21:28:11;;;;;;;4.68;2.45;;;;;;;;;;10369015;28;20026;-61
2024/02/25 21:33:11;;;;;;;2.80;2.50;;;;;;;;;;10368146;28;20037;-60
2024/02/25 21:38:12;;;;;;;2.75;2.47;;;;;;;;;;10368099;28;20033;-66
2024/02/25 21:43:15;;;;;;;10.73;3.00;;;;;;;;;;10366958;28;20478;-60
2024/02/25 21:48:18;;;;;;;8.88;2.83;;;;;;;;;;10368768;28;20377;-60
2024/02/25 21:53:19;;;;;;;7.78;2.70;;;;;;;;;;10368686;28;20030;-63
2024/02/25 21:58:20;;;;;;;9.52;2.85;;;;;;;;;;10368340;28;20037;-60
2024/02/25 22:03:21;;;;;;;13.93;4.47;;;;;;;;;;10366687;28;20089;-61
2024/02/25 22:08:23;;;;;;;8.15;3.78;;;;;;;;;;10363236;28;20502;-60
2024/02/25 22:13:23;;;;;;;10.18;3.30;;;;;;;;;;10365704;28;20088;-60
2024/02/25 22:18:25;;;;;;;6.15;2.85;;;;;;;;;;10362841;28;20025;-59
2024/02/25 22:23:26;;;;;;;5.97;3.08;;;;;;;;;;10366121;28;20406;-60
2024/02/25 22:28:27;;;;;;;13.30;3.25;;;;;;;;;;10366517;28;20040;-60
2024/02/25 22:33:28;;;;;;;10.02;3.20;;;;;;;;;;10366667;28;20339;-60
2024/02/25 22:38:29;;;;;;;9.32;3.22;;;;;;;;;;10366803;28;20436;-60
2024/02/25 22:43:30;;;;;;;11.32;3.85;;;;;;;;;;10367441;28;20037;-60
2024/02/25 22:48:30;;;;;;;14.10;3.78;;;;;;;;;;10366798;28;20049;-60
2024/02/25 22:53:32;;;;;;;11.43;3.38;;;;;;;;;;10369485;28;20036;-60
2024/02/25 22:58:33;;;;;;;9.25;3.72;;;;;;;;;;10380396;28;20061;-60
2024/02/25 23:03:33;;;;;;;7.10;2.83;;;;;;;;;;10379515;28;20049;-60
2024/02/25 23:08:34;;;;;;;6.53;3.15;;;;;;;;;;10379509;28;20026;-60
2024/02/25 23:13:34;;;;;;;7.60;2.80;;;;;;;;;;10379427;28;20026;-60
2024/02/25 23:18:35;;;;;;;8.48;3.30;;;;;;;;;;10380283;28;20029;-60
2024/02/25 23:23:36;;;;;;;7.28;2.97;;;;;;;;;;10379130;28;20213;-59
2024/02/25 23:28:36;;;;;;;8.43;3.03;;;;;;;;;;10378480;28;20429;-60
2024/02/25 23:33:37;;;;;;;8.30;2.92;;;;;;;;;;10379050;28;20084;-60
2024/02/25 23:38:37;;;;;;;7.75;2.75;;;;;;;;;;10379069;28;20062;-60
2024/02/25 23:43:38;;;;;;;7.38;2.95;;;;;;;;;;10378679;28;20037;-61
2024/02/25 23:48:39;;;;;;;5.63;2.60;;;;;;;;;;10378625;28;20029;-59
2024/02/25 23:53:39;;;;;;;6.05;2.97;;;;;;;;;;10379163;28;20033;-59
2024/02/25 23:58:40;;;;;;;7.97;3.80;;;;;;;;;;10378619;28;20149;-61
